Time;durP1;ratioP1;P1;durP2;ratioP2;P2;SDS_P1;SDS_P2;PMS_P1;PMS_P2;Temp;Humidity;BMP_temperature;BMP_pressure;BME280_temperature;BME280_humidity;BME280_pressure;Samples;Min_cycle;Max_cycle;Signal;HPM_P1;HPM_P2
2021/03/13 00:00:23;;;;;;;39.47;6.27;;;7.30;99.90;;;;;;5042476;28;20514;-74
2021/03/13 00:02:51;;;;;;;38.97;8.07;;;7.30;99.90;;;;;;5022549;28;20234;-74
2021/03/13 00:05:21;;;;;;;39.67;6.70;;;7.40;99.90;;;;;;5021537;28;20912;-76
2021/03/13 00:07:47;;;;;;;34.33;6.50;;;7.40;99.90;;;;;;5030851;28;20332;-75
2021/03/13 00:10:14;;;;;;;52.20;8.77;;;7.50;99.90;;;;;;5042107;28;20206;-76
2021/03/13 00:12:40;;;;;;;38.20;7.63;;;7.50;99.90;;;;;;5022360;28;20292;-77
2021/03/13 00:15:07;;;;;;;34.03;6.67;;;7.50;99.90;;;;;;5022110;28;20637;-74
2021/03/13 00:17:34;;;;;;;36.03;6.93;;;7.50;99.90;;;;;;5021820;28;20202;-76
2021/03/13 00:20:01;;;;;;;31.03;5.53;;;7.50;99.90;;;;;;5022085;28;20948;-75
2021/03/13 00:22:27;;;;;;;33.40;6.47;;;7.60;99.90;;;;;;5020688;28;20195;-76
2021/03/13 00:24:53;;;;;;;29.93;6.33;;;7.60;99.90;;;;;;5022048;28;20210;-77
2021/03/13 00:27:20;;;;;;;21.97;5.53;;;7.70;99.90;;;;;;5020779;28;20230;-76
2021/03/13 00:29:46;;;;;;;28.67;6.20;;;7.70;99.90;;;;;;5021002;28;20304;-76
2021/03/13 00:32:12;;;;;;;26.30;6.00;;;7.70;99.90;;;;;;5022191;28;20218;-77
2021/03/13 00:34:38;;;;;;;30.93;5.87;;;7.70;99.90;;;;;;5021978;28;20218;-76
2021/03/13 00:37:06;;;;;;;25.90;5.20;;;7.80;99.90;;;;;;5021452;28;20415;-75
2021/03/13 00:39:32;;;;;;;23.97;4.67;;;7.80;99.90;;;;;;5021961;28;20264;-77
2021/03/13 00:41:58;;;;;;;23.43;5.57;;;7.80;99.90;;;;;;5030115;28;20202;-75
2021/03/13 00:44:25;;;;;;;26.07;5.33;;;7.80;99.90;;;;;;5041373;28;20202;-76
2021/03/13 00:46:51;;;;;;;20.97;4.30;;;7.80;99.90;;;;;;5030149;28;20490;-78
2021/03/13 00:49:17;;;;;;;19.93;5.03;;;7.80;99.90;;;;;;5022066;28;20195;-79
2021/03/13 00:51:43;;;;;;;19.93;4.40;;;7.80;99.90;;;;;;5021455;28;20203;-76
2021/03/13 00:54:11;;;;;;;26.37;5.27;;;7.80;99.90;;;;;;5020972;28;20234;-78
2021/03/13 00:56:37;;;;;;;29.57;5.07;;;7.90;99.90;;;;;;5021536;28;20214;-76
2021/03/13 00:59:04;;;;;;;20.03;4.37;;;7.90;99.90;;;;;;5021102;28;20202;-75
2021/03/13 01:01:30;;;;;;;15.83;3.80;;;7.90;99.90;;;;;;5036882;28;20213;-76
2021/03/13 01:03:56;;;;;;;19.33;3.83;;;7.90;99.90;;;;;;5041111;28;20206;-76
2021/03/13 01:06:22;;;;;;;22.17;4.83;;;7.90;99.90;;;;;;5024845;28;20218;-77
2021/03/13 01:08:49;;;;;;;15.77;4.30;;;7.90;99.90;;;;;;5024261;28;20567;-76
2021/03/13 01:11:16;;;;;;;16.20;3.83;;;7.90;99.90;;;;;;5025310;28;20237;-75
2021/03/13 01:13:42;;;;;;;12.07;3.80;;;7.90;99.90;;;;;;5024812;28;20207;-75
2021/03/13 01:16:08;;;;;;;13.30;3.20;;;7.90;99.90;;;;;;5024952;28;20202;-77
2021/03/13 01:18:35;;;;;;;13.67;2.97;;;7.90;99.90;;;;;;5024853;28;20252;-76
2021/03/13 01:21:01;;;;;;;13.97;3.70;;;7.90;99.90;;;;;;5025126;28;20217;-75
2021/03/13 01:23:27;;;;;;;16.30;3.13;;;7.90;99.90;;;;;;5024370;28;20213;-75
2021/03/13 01:25:53;;;;;;;12.83;3.00;;;7.90;99.90;;;;;;5025652;28;20207;-75
2021/03/13 01:28:20;;;;;;;9.03;2.37;;;7.90;99.90;;;;;;5024875;28;20245;-75
2021/03/13 01:30:47;;;;;;;12.73;2.53;;;7.90;99.90;;;;;;5025271;28;20202;-76
2021/03/13 01:33:13;;;;;;;13.90;3.00;;;7.90;99.90;;;;;;5025686;28;20202;-77
2021/03/13 01:35:39;;;;;;;7.10;2.40;;;7.90;99.90;;;;;;5024655;28;20198;-78
2021/03/13 01:38:06;;;;;;;14.17;2.43;;;7.80;99.90;;;;;;5025135;28;20206;-78
2021/03/13 01:40:32;;;;;;;9.70;2.60;;;7.80;99.90;;;;;;5024168;28;20203;-76
2021/03/13 01:42:58;;;;;;;7.87;2.10;;;7.80;99.90;;;;;;5025075;28;20213;-78
2021/03/13 01:45:26;;;;;;;9.73;2.67;;;7.70;99.90;;;;;;5024723;28;20261;-78
2021/03/13 01:47:54;;;;;;;10.20;2.37;;;7.60;99.90;;;;;;5024844;28;20233;-77
2021/03/13 01:50:21;;;;;;;11.10;3.10;;;7.60;99.90;;;;;;5024119;28;20206;-76
2021/03/13 01:52:48;;;;;;;10.90;3.30;;;7.60;99.90;;;;;;5023915;28;20276;-77
2021/03/13 01:55:14;;;;;;;8.63;2.50;;;7.60;99.90;;;;;;5038146;28;20830;-76
2021/03/13 01:57:41;;;;;;;10.13;2.93;;;7.40;99.90;;;;;;5043848;28;20198;-77
2021/03/13 02:00:10;;;;;;;10.83;2.33;;;7.40;99.90;;;;;;5044026;28;20283;-75
2021/03/13 02:02:38;;;;;;;16.13;3.67;;;7.30;99.90;;;;;;5042498;28;20257;-75
2021/03/13 02:05:15;;;;;;;13.30;4.07;;;7.30;99.90;;;;;;5043670;28;20231;-78
2021/03/13 02:07:48;;;;;;;11.33;3.03;;;7.20;99.90;;;;;;5042038;28;20272;-75
2021/03/13 02:10:24;;;;;;;12.90;3.80;;;7.20;99.90;;;;;;5033995;28;20205;-76
2021/03/13 02:13:02;;;;;;;12.33;4.40;;;7.20;99.90;;;;;;5029655;28;20217;-76
2021/03/13 02:15:36;;;;;;;11.70;4.10;;;7.10;99.90;;;;;;5024096;28;20195;-78
2021/03/13 02:18:11;;;;;;;17.27;5.00;;;7.10;99.90;;;;;;5023719;28;20214;-74
2021/03/13 02:21:02;;;;;;;13.37;4.53;;;7.10;99.90;;;;;;5023556;28;20260;-77
2021/03/13 02:23:30;;;;;;;13.60;3.73;;;7.10;99.90;;;;;;5023758;28;20218;-76
2021/03/13 02:26:11;;;;;;;14.60;3.90;;;7.10;99.90;;;;;;5023364;28;20207;-75
2021/03/13 02:28:46;;;;;;;8.80;3.33;;;7.10;99.90;;;;;;5024096;28;20226;-78
2021/03/13 02:31:15;;;;;;;10.47;3.60;;;7.10;99.90;;;;;;5024610;28;20198;-77
2021/03/13 02:33:43;;;;;;;12.67;3.80;;;7.10;99.90;;;;;;5029455;28;20217;-75
2021/03/13 02:36:15;;;;;;;12.20;4.10;;;7.10;99.90;;;;;;5042174;28;20202;-77
2021/03/13 02:38:46;;;;;;;8.90;3.33;;;7.10;99.90;;;;;;5030439;28;20256;-76
2021/03/13 02:41:16;;;;;;;9.00;3.80;;;7.10;99.90;;;;;;5022760;28;20211;-76
2021/03/13 02:43:47;;;;;;;16.90;3.70;;;7.00;99.90;;;;;;5023192;28;20527;-76
2021/03/13 02:46:17;;;;;;;9.50;2.93;;;7.00;99.90;;;;;;5023760;28;20206;-74
2021/03/13 02:48:46;;;;;;;7.43;3.00;;;7.00;99.90;;;;;;5022845;28;20237;-76
2021/03/13 02:51:16;;;;;;;8.33;3.07;;;7.00;99.90;;;;;;5023054;28;20218;-77
2021/03/13 02:53:44;;;;;;;10.17;3.60;;;7.00;99.90;;;;;;5022808;28;20246;-76
2021/03/13 02:56:11;;;;;;;9.97;4.03;;;7.00;99.90;;;;;;5023819;28;20271;-77
2021/03/13 02:58:40;;;;;;;11.47;4.73;;;6.90;99.90;;;;;;5022825;28;20199;-76
2021/03/13 03:01:08;;;;;;;16.00;5.03;;;7.00;99.90;;;;;;5023019;28;20809;-78
2021/03/13 03:03:37;;;;;;;7.30;4.80;;;6.90;99.90;;;;;;5042466;28;20879;-76
2021/03/13 03:06:04;;;;;;;12.23;6.40;;;6.90;99.90;;;;;;5042893;28;20732;-75
2021/03/13 03:08:32;;;;;;;14.73;8.00;;;6.90;99.90;;;;;;5042066;28;20291;-76
2021/03/13 03:11:00;;;;;;;11.83;7.57;;;6.90;99.90;;;;;;5027599;28;20214;-78
2021/03/13 03:13:27;;;;;;;16.33;8.77;;;6.90;99.90;;;;;;5022681;28;20214;-75
2021/03/13 03:15:58;;;;;;;15.60;8.47;;;7.00;99.90;;;;;;5022397;28;20658;-76
2021/03/13 03:18:27;;;;;;;15.47;8.93;;;7.00;99.90;;;;;;5023020;28;20199;-76
2021/03/13 03:20:56;;;;;;;15.60;9.37;;;6.90;99.90;;;;;;5024287;28;20210;-76
2021/03/13 03:23:23;;;;;;;12.47;8.93;;;7.00;99.90;;;;;;5022328;28;20198;-76
2021/03/13 03:25:51;;;;;;;13.77;9.97;;;7.00;99.90;;;;;;5022370;28;20598;-76
2021/03/13 03:28:20;;;;;;;23.67;10.47;;;7.00;99.90;;;;;;5022006;28;20223;-76
2021/03/13 03:30:47;;;;;;;18.37;11.37;;;7.00;99.90;;;;;;5021405;28;20733;-75
2021/03/13 03:33:14;;;;;;;17.40;10.27;;;7.00;99.90;;;;;;5022886;28;20289;-77
2021/03/13 03:35:41;;;;;;;13.00;9.73;;;7.00;99.90;;;;;;5032517;28;20213;-75
2021/03/13 03:38:09;;;;;;;15.63;10.27;;;7.10;99.90;;;;;;5040223;28;20217;-75
2021/03/13 03:40:36;;;;;;;12.73;9.27;;;7.10;99.90;;;;;;5021827;28;20204;-76
2021/03/13 03:43:08;;;;;;;12.07;7.03;;;7.20;99.90;;;;;;5022156;28;20403;-75
2021/03/13 03:45:35;;;;;;;12.73;6.77;;;7.20;99.90;;;;;;5020390;28;20413;-77
2021/03/13 03:48:04;;;;;;;9.63;6.23;;;7.20;99.90;;;;;;5020671;28;20292;-76
2021/03/13 03:50:32;;;;;;;10.43;5.83;;;7.20;99.90;;;;;;5019927;28;20788;-74
2021/03/13 03:53:00;;;;;;;9.60;5.33;;;7.20;99.90;;;;;;5021314;28;20242;-74
2021/03/13 03:55:29;;;;;;;12.40;4.83;;;7.30;99.90;;;;;;5021156;28;20202;-74
2021/03/13 03:57:57;;;;;;;11.87;5.20;;;7.30;99.90;;;;;;5020942;28;20210;-75
2021/03/13 04:00:24;;;;;;;9.73;4.30;;;7.30;99.90;;;;;;5020974;28;20854;-74
2021/03/13 04:02:52;;;;;;;8.13;4.50;;;7.30;99.90;;;;;;5020671;28;20237;-74
2021/03/13 04:05:19;;;;;;;10.03;4.07;;;7.40;99.90;;;;;;5019854;28;20209;-74
2021/03/13 04:07:45;;;;;;;9.77;4.10;;;7.40;99.90;;;;;;5021281;28;20222;-74
2021/03/13 04:10:14;;;;;;;10.47;4.63;;;7.40;99.90;;;;;;5030480;28;20228;-74
2021/03/13 04:12:42;;;;;;;7.37;3.20;;;7.40;99.90;;;;;;5020876;28;20213;-76
2021/03/13 04:15:11;;;;;;;7.10;3.10;;;7.50;99.90;;;;;;5022020;28;20207;-74
2021/03/13 04:17:38;;;;;;;9.13;3.00;;;7.50;99.90;;;;;;5021036;28;20199;-74
2021/03/13 04:20:06;;;;;;;7.27;3.17;;;7.50;99.90;;;;;;5022015;28;20207;-73
2021/03/13 04:22:34;;;;;;;5.50;2.63;;;7.50;99.90;;;;;;5021110;28;20210;-74
2021/03/13 04:25:03;;;;;;;5.27;2.80;;;7.50;99.90;;;;;;5020712;28;20566;-74
2021/03/13 04:27:30;;;;;;;5.93;2.73;;;7.50;99.90;;;;;;5021153;28;20222;-74
2021/03/13 04:29:57;;;;;;;9.37;2.77;;;7.50;99.90;;;;;;5021147;28;20194;-74
2021/03/13 04:32:24;;;;;;;8.63;3.40;;;7.60;99.90;;;;;;5020686;28;20611;-74
2021/03/13 04:34:51;;;;;;;5.27;2.90;;;7.60;99.90;;;;;;5021742;28;20679;-75
2021/03/13 04:37:19;;;;;;;8.50;3.40;;;7.60;99.90;;;;;;5021893;28;20203;-74
2021/03/13 04:39:46;;;;;;;10.73;3.63;;;7.60;99.90;;;;;;5021587;28;20202;-74
2021/03/13 04:42:13;;;;;;;5.47;3.00;;;7.60;99.90;;;;;;5024465;28;20306;-75
2021/03/13 04:44:39;;;;;;;11.60;3.47;;;7.70;99.90;;;;;;5042683;28;20210;-74
2021/03/13 04:47:07;;;;;;;8.60;3.20;;;7.70;99.90;;;;;;5044334;28;20228;-73
2021/03/13 04:49:33;;;;;;;7.90;2.93;;;7.70;99.90;;;;;;5044583;28;20616;-74
2021/03/13 04:52:00;;;;;;;8.73;2.83;;;7.70;99.90;;;;;;5026588;28;20240;-75
2021/03/13 04:54:26;;;;;;;10.67;3.30;;;7.80;99.90;;;;;;5024535;28;20202;-73
2021/03/13 04:56:53;;;;;;;12.87;3.20;;;7.80;99.90;;;;;;5025300;28;20198;-75
2021/03/13 04:59:19;;;;;;;15.27;3.07;;;7.80;99.90;;;;;;5025405;28;20343;-75
2021/03/13 05:01:46;;;;;;;15.50;3.30;;;7.80;99.90;;;;;;5024950;28;20261;-74
2021/03/13 05:04:13;;;;;;;14.53;4.30;;;7.70;99.90;;;;;;5024824;28;20198;-74
2021/03/13 05:06:39;;;;;;;15.40;3.70;;;7.70;99.90;;;;;;5024719;28;20581;-74
2021/03/13 05:09:06;;;;;;;24.73;5.03;;;7.70;99.90;;;;;;5024911;28;20210;-74
2021/03/13 05:11:33;;;;;;;19.07;4.40;;;7.70;99.90;;;;;;5044367;28;20587;-74
2021/03/13 05:14:00;;;;;;;27.37;4.33;;;7.60;99.90;;;;;;5045120;28;20245;-76
2021/03/13 05:16:26;;;;;;;22.67;5.03;;;7.60;99.90;;;;;;5040154;28;20227;-74
2021/03/13 05:18:53;;;;;;;27.30;4.97;;;7.60;99.90;;;;;;5025458;28;20210;-75
2021/03/13 05:21:20;;;;;;;23.33;5.60;;;7.50;99.90;;;;;;5024844;28;20473;-75
2021/03/13 05:23:46;;;;;;;28.67;5.77;;;7.50;99.90;;;;;;5024428;28;20217;-78
2021/03/13 05:26:13;;;;;;;20.70;5.50;;;7.50;99.90;;;;;;5025137;28;20207;-73
2021/03/13 05:28:39;;;;;;;21.10;4.20;;;7.50;99.90;;;;;;5024416;28;20222;-74
2021/03/13 05:31:05;;;;;;;17.17;4.13;;;7.50;99.90;;;;;;5025012;28;20211;-76
2021/03/13 05:33:31;;;;;;;22.80;4.47;;;7.40;99.90;;;;;;5024433;28;20667;-77
2021/03/13 05:35:58;;;;;;;16.73;3.80;;;7.40;99.90;;;;;;5024737;28;20202;-74
2021/03/13 05:38:25;;;;;;;18.27;4.00;;;7.40;99.90;;;;;;5034191;28;20223;-73
2021/03/13 05:40:51;;;;;;;17.03;3.40;;;7.30;99.90;;;;;;5044504;28;20198;-75
2021/03/13 05:43:20;;;;;;;18.10;4.50;;;7.40;99.90;;;;;;5043717;28;20260;-82
2021/03/13 05:45:48;;;;;;;15.67;3.60;;;7.40;99.90;;;;;;5024132;28;20261;-75
2021/03/13 05:48:16;;;;;;;18.50;2.90;;;7.30;99.90;;;;;;5024498;28;20284;-74
2021/03/13 05:50:43;;;;;;;18.20;4.53;;;7.30;99.90;;;;;;5023601;28;20203;-74
2021/03/13 05:53:11;;;;;;;14.93;5.23;;;7.30;99.90;;;;;;5039710;28;20342;-79
2021/03/13 05:55:39;;;;;;;16.37;4.20;;;7.20;99.90;;;;;;5044467;28;20205;-74
2021/03/13 05:58:07;;;;;;;13.37;3.73;;;7.20;99.90;;;;;;5044376;28;20213;-73
2021/03/13 06:00:33;;;;;;;22.60;4.93;;;7.30;99.90;;;;;;5029812;28;20781;-74
2021/03/13 06:03:00;;;;;;;16.20;4.03;;;7.30;99.90;;;;;;5024954;28;20222;-78
2021/03/13 06:05:26;;;;;;;21.53;4.97;;;7.40;99.90;;;;;;5023884;28;20211;-76
2021/03/13 06:07:54;;;;;;;17.70;3.20;;;7.40;99.90;;;;;;5024354;28;21018;-73
2021/03/13 06:10:22;;;;;;;20.77;4.70;;;7.40;99.90;;;;;;5034818;28;20279;-74
2021/03/13 06:12:49;;;;;;;22.23;3.93;;;7.40;99.90;;;;;;5032349;28;20912;-73
2021/03/13 06:15:19;;;;;;;21.00;5.50;;;7.40;99.90;;;;;;5024148;28;20313;-76
2021/03/13 06:17:53;;;;;;;22.43;4.40;;;7.40;99.90;;;;;;5036774;28;20920;-74
2021/03/13 06:20:22;;;;;;;23.40;4.73;;;7.40;99.90;;;;;;5047312;28;20205;-74
2021/03/13 06:22:48;;;;;;;21.40;5.27;;;7.40;99.90;;;;;;5036020;28;20533;-76
2021/03/13 06:25:19;;;;;;;29.73;6.33;;;7.40;99.90;;;;;;5027125;28;20206;-74
2021/03/13 06:27:47;;;;;;;28.03;6.43;;;7.40;99.90;;;;;;5023097;28;20284;-75
2021/03/13 06:30:15;;;;;;;27.03;5.10;;;7.40;99.90;;;;;;5023469;28;20215;-76
2021/03/13 06:32:42;;;;;;;23.40;5.73;;;7.40;99.90;;;;;;5023505;28;20663;-76
2021/03/13 06:35:19;;;;;;;28.73;5.67;;;7.40;99.90;;;;;;5033639;28;20215;-76
2021/03/13 06:37:46;;;;;;;24.90;5.77;;;7.40;99.90;;;;;;5023183;28;20643;-76
2021/03/13 06:40:26;;;;;;;26.90;5.13;;;7.40;99.90;;;;;;5022820;28;20269;-75
2021/03/13 06:42:53;;;;;;;28.90;7.23;;;7.40;99.90;;;;;;5023974;28;20205;-75
2021/03/13 06:45:22;;;;;;;23.20;6.13;;;7.50;99.90;;;;;;5022804;28;20503;-74
2021/03/13 06:47:49;;;;;;;31.40;6.77;;;7.50;99.90;;;;;;5021907;28;20226;-74
2021/03/13 06:50:17;;;;;;;27.43;6.93;;;7.60;99.90;;;;;;5023147;28;20210;-76
2021/03/13 06:52:45;;;;;;;25.13;6.50;;;7.50;99.90;;;;;;5022056;28;20249;-76
2021/03/13 06:55:29;;;;;;;19.87;5.33;;;7.50;99.90;;;;;;5022641;28;20203;-75
2021/03/13 06:58:06;;;;;;;25.30;5.90;;;7.60;99.90;;;;;;5023347;28;20198;-75
2021/03/13 07:00:36;;;;;;;22.40;6.03;;;7.60;99.90;;;;;;5021997;28;20489;-76
2021/03/13 07:03:07;;;;;;;28.20;5.97;;;7.60;99.90;;;;;;5022812;28;20337;-75
2021/03/13 07:05:34;;;;;;;23.40;5.50;;;7.60;99.90;;;;;;5051494;22;20248;-73
2021/03/13 07:08:22;;;;;;;28.63;5.63;;;7.60;99.90;;;;;;5061921;28;20267;-75
2021/03/13 07:10:48;;;;;;;28.57;5.73;;;7.60;99.90;;;;;;5062353;28;20225;-76
2021/03/13 07:13:35;;;;;;;28.37;7.63;;;7.50;99.90;;;;;;5053248;28;20253;-75
2021/03/13 07:16:31;;;;;;;31.70;6.63;;;7.50;99.90;;;;;;5041901;28;20965;-75
2021/03/13 07:19:00;;;;;;;43.73;8.37;;;7.40;99.90;;;;;;5041060;28;20202;-76
2021/03/13 07:21:27;;;;;;;30.53;7.47;;;7.40;99.90;;;;;;5042114;28;20202;-75
2021/03/13 07:23:56;;;;;;;36.30;8.57;;;7.40;99.90;;;;;;5043175;28;20213;-76
2021/03/13 07:26:32;;;;;;;32.97;8.23;;;7.40;99.90;;;;;;5042023;28;20202;-76
2021/03/13 07:29:00;;;;;;;26.13;7.53;;;7.40;99.90;;;;;;5041950;28;20213;-75
2021/03/13 07:31:30;;;;;;;35.10;8.13;;;7.50;99.90;;;;;;5041984;28;20210;-75
2021/03/13 07:34:01;;;;;;;32.00;6.30;;;7.50;99.90;;;;;;5041933;28;20206;-76
2021/03/13 07:36:28;;;;;;;29.77;7.43;;;7.50;99.90;;;;;;5041695;28;20210;-76
2021/03/13 07:39:01;;;;;;;19.03;5.20;;;7.50;99.90;;;;;;5042628;28;20230;-74
2021/03/13 07:41:30;;;;;;;27.00;6.27;;;7.50;99.90;;;;;;5041629;28;20194;-74
2021/03/13 07:43:58;;;;;;;26.33;5.10;;;7.50;99.90;;;;;;5041608;28;20270;-77
2021/03/13 07:46:24;;;;;;;40.33;7.43;;;7.50;99.90;;;;;;5045763;28;20244;-76
2021/03/13 07:48:53;;;;;;;39.20;7.30;;;7.60;99.90;;;;;;5061512;28;20711;-76
2021/03/13 07:51:20;;;;;;;33.80;6.07;;;7.60;99.90;;;;;;5061477;28;20201;-75
2021/03/13 07:53:47;;;;;;;31.03;7.60;;;7.60;99.90;;;;;;5055344;28;20237;-76
2021/03/13 07:56:15;;;;;;;32.10;7.63;;;7.60;99.90;;;;;;5041795;28;20681;-78
2021/03/13 07:58:43;;;;;;;32.03;7.23;;;7.70;99.90;;;;;;5041086;28;20194;-76
2021/03/13 08:01:12;;;;;;;29.53;7.50;;;7.70;99.90;;;;;;5062229;28;20282;-76
2021/03/13 08:03:48;;;;;;;34.23;6.87;;;7.80;99.90;;;;;;5077855;28;20916;-77
2021/03/13 08:06:17;;;;;;;27.80;5.23;;;7.70;99.90;;;;;;5082095;28;20232;-77
2021/03/13 08:08:45;;;;;;;27.07;6.30;;;7.70;99.90;;;;;;5081111;28;20220;-76
2021/03/13 08:11:12;;;;;;;36.23;7.70;;;7.70;99.90;;;;;;5082194;28;20548;-76
2021/03/13 08:13:56;;;;;;;29.43;5.60;;;7.80;99.90;;;;;;5081547;28;20204;-76
2021/03/13 08:16:42;;;;;;;32.47;5.93;;;7.80;99.90;;;;;;5082935;28;20263;-75
2021/03/13 08:19:28;;;;;;;44.03;7.00;;;7.90;99.90;;;;;;5044224;28;20674;-77
2021/03/13 08:22:18;;;;;;;28.23;6.80;;;8.00;99.90;;;;;;5065390;28;20616;-76
2021/03/13 08:24:47;;;;;;;32.03;5.97;;;8.10;99.90;;;;;;5072597;28;20367;-76
2021/03/13 08:27:17;;;;;;;27.67;5.40;;;8.20;99.90;;;;;;5065922;28;20255;-78
2021/03/13 08:29:51;;;;;;;25.73;6.23;;;8.30;99.90;;;;;;5065223;28;20204;-76
2021/03/13 08:32:38;;;;;;;35.50;7.73;;;8.30;99.90;;;;;;5075297;28;20231;-78
2021/03/13 08:35:07;;;;;;;26.37;5.43;;;8.30;99.90;;;;;;5084599;28;20235;-78
2021/03/13 08:37:47;;;;;;;29.07;6.80;;;8.30;99.90;;;;;;5082721;28;20589;-77
2021/03/13 08:40:24;;;;;;;26.00;6.67;;;8.20;99.90;;;;;;5065365;28;20219;-76
2021/03/13 08:42:50;;;;;;;34.23;7.53;;;8.20;99.90;;;;;;5080271;28;20208;-78
2021/03/13 08:45:18;;;;;;;29.43;7.70;;;8.10;99.90;;;;;;5073550;28;20205;-78
2021/03/13 08:47:48;;;;;;;31.90;6.87;;;8.10;99.90;;;;;;5064939;28;20225;-76
2021/03/13 08:50:56;;;;;;;26.07;6.47;;;8.20;99.90;;;;;;5064755;28;20201;-75
2021/03/13 08:53:42;;;;;;;26.97;6.93;;;8.20;99.90;;;;;;5064310;28;20505;-76
2021/03/13 08:56:41;;;;;;;24.70;5.90;;;8.30;99.90;;;;;;5065171;28;20197;-76
2021/03/13 08:59:13;;;;;;;25.03;6.77;;;8.30;99.90;;;;;;5065295;28;20622;-79
2021/03/13 09:01:41;;;;;;;30.20;7.07;;;8.30;99.90;;;;;;5068063;28;20798;-78
2021/03/13 09:04:08;;;;;;;32.47;7.07;;;8.40;99.90;;;;;;5084980;28;20236;-77
2021/03/13 09:06:34;;;;;;;42.77;6.67;;;8.50;99.90;;;;;;5083991;28;20585;-77
2021/03/13 09:09:13;;;;;;;26.77;4.77;;;8.50;99.90;;;;;;5075324;28;20225;-76
2021/03/13 09:11:42;;;;;;;26.20;6.30;;;8.50;99.90;;;;;;5084562;28;20747;-76
2021/03/13 09:14:09;;;;;;;28.43;6.87;;;8.50;99.90;;;;;;5072081;28;20597;-78
2021/03/13 09:16:38;;;;;;;31.67;5.40;;;8.60;99.90;;;;;;5064355;28;20270;-78
2021/03/13 09:19:07;;;;;;;28.43;7.70;;;8.60;99.90;;;;;;5064826;28;20239;-76
2021/03/13 09:21:57;;;;;;;36.10;6.30;;;8.60;99.90;;;;;;5064200;28;20229;-77
2021/03/13 09:24:27;;;;;;;31.97;6.97;;;8.60;99.90;;;;;;5048692;28;20232;-77
2021/03/13 09:26:56;;;;;;;25.30;6.33;;;8.70;99.90;;;;;;5063443;28;20205;-76
2021/03/13 09:29:28;;;;;;;30.33;8.43;;;8.90;99.90;;;;;;5063523;28;21028;-77
2021/03/13 09:31:56;;;;;;;23.80;5.50;;;9.10;99.90;;;;;;5064211;28;20871;-77
2021/03/13 09:34:23;;;;;;;27.90;5.83;;;9.00;99.90;;;;;;5063664;28;20290;-76
2021/03/13 09:36:50;;;;;;;26.83;6.67;;;9.10;99.90;;;;;;5073385;28;20235;-78
2021/03/13 09:39:26;;;;;;;25.77;5.30;;;9.10;99.90;;;;;;5069609;28;20250;-77
2021/03/13 09:42:13;;;;;;;22.63;5.23;;;9.10;99.90;;;;;;5063740;28;20228;-77
2021/03/13 09:44:42;;;;;;;25.03;6.77;;;9.00;99.90;;;;;;5068084;28;20237;-77
2021/03/13 09:47:13;;;;;;;17.73;5.20;;;9.10;99.90;;;;;;5076939;28;20216;-78
2021/03/13 09:49:40;;;;;;;29.17;5.00;;;9.10;99.90;;;;;;5062350;28;20215;-77
2021/03/13 09:52:07;;;;;;;23.87;5.50;;;9.20;99.90;;;;;;5066841;28;20213;-76
2021/03/13 09:54:34;;;;;;;27.33;7.17;;;9.30;99.90;;;;;;5081469;28;20212;-78
2021/03/13 09:57:08;;;;;;;24.33;5.77;;;9.40;99.90;;;;;;5083489;28;20850;-76
2021/03/13 09:59:35;;;;;;;24.60;5.37;;;9.50;99.90;;;;;;5066959;28;20212;-77
2021/03/13 10:02:02;;;;;;;26.97;5.70;;;9.60;99.90;;;;;;5063293;28;20245;-76
2021/03/13 10:04:29;;;;;;;24.73;5.33;;;9.60;99.90;;;;;;5063070;28;20202;-76
2021/03/13 10:06:55;;;;;;;20.67;4.87;;;9.60;99.90;;;;;;5063178;28;20229;-78
2021/03/13 10:09:22;;;;;;;25.70;5.73;;;9.60;99.90;;;;;;5067023;28;20572;-79
2021/03/13 10:11:50;;;;;;;26.93;6.43;;;9.60;99.90;;;;;;5078801;28;20205;-78
2021/03/13 10:14:21;;;;;;;22.37;6.70;;;9.60;99.90;;;;;;5063978;28;20516;-77
2021/03/13 10:16:48;;;;;;;28.87;6.83;;;9.70;99.90;;;;;;5065598;23;20314;-77
2021/03/13 10:19:45;;;;;;;27.13;5.17;;;9.70;99.90;;;;;;5025849;28;20254;-77
2021/03/13 10:22:15;;;;;;;20.73;6.10;;;9.70;99.90;;;;;;4963431;28;20278;-75
2021/03/13 10:24:43;;;;;;;19.23;5.00;;;9.70;99.90;;;;;;5030239;28;20291;-77
2021/03/13 10:27:11;;;;;;;27.73;4.90;;;9.60;99.90;;;;;;5044610;28;20295;-79
2021/03/13 10:29:37;;;;;;;17.20;3.83;;;9.60;99.90;;;;;;5043460;28;20214;-77
2021/03/13 10:32:05;;;;;;;20.07;5.00;;;9.40;99.90;;;;;;5044058;28;20194;-80
2021/03/13 10:34:35;;;;;;;22.80;4.60;;;9.30;99.90;;;;;;5046001;23;20265;-78
2021/03/13 10:37:02;;;;;;;22.70;5.30;;;9.30;99.90;;;;;;5029520;28;20747;-77
2021/03/13 10:39:29;;;;;;;21.07;4.63;;;9.20;99.90;;;;;;5022029;28;20249;-81
2021/03/13 10:41:59;;;;;;;28.30;5.43;;;9.00;99.90;;;;;;5039251;28;20202;-78
2021/03/13 10:44:27;;;;;;;24.93;6.53;;;9.00;99.90;;;;;;5033592;28;20210;-78
2021/03/13 10:46:53;;;;;;;32.73;6.50;;;8.90;99.90;;;;;;5037557;28;20249;-78
2021/03/13 10:49:26;;;;;;;32.53;5.43;;;8.90;99.90;;;;;;5041058;28;20264;-80
2021/03/13 10:51:54;;;;;;;24.73;5.43;;;8.70;99.90;;;;;;5033027;28;20198;-79
2021/03/13 10:54:23;;;;;;;30.60;7.83;;;8.60;99.90;;;;;;5031713;28;20222;-79
2021/03/13 10:56:50;;;;;;;36.53;9.03;;;8.60;99.90;;;;;;5035168;28;20202;-79
2021/03/13 10:59:17;;;;;;;31.00;7.93;;;8.70;99.90;;;;;;5044689;28;20599;-79
2021/03/13 11:01:46;;;;;;;30.17;5.70;;;8.80;99.90;;;;;;5035116;28;20300;-80
2021/03/13 11:04:13;;;;;;;31.07;5.57;;;9.00;99.90;;;;;;5038422;28;20209;-79
2021/03/13 11:06:40;;;;;;;29.10;6.90;;;9.30;99.90;;;;;;5027697;28;20222;-79
2021/03/13 11:09:09;;;;;;;30.90;6.03;;;9.40;99.90;;;;;;5026637;28;20226;-77
2021/03/13 11:11:35;;;;;;;24.97;6.97;;;9.60;99.90;;;;;;5038172;28;20207;-81
2021/03/13 11:14:06;;;;;;;26.43;6.27;;;9.60;99.90;;;;;;5035101;28;20221;-78
2021/03/13 11:16:32;;;;;;;39.40;8.23;;;9.60;99.90;;;;;;5042743;28;20229;-78
2021/03/13 11:19:00;;;;;;;28.33;6.27;;;9.70;99.90;;;;;;5039301;28;20238;-77
2021/03/13 11:21:29;;;;;;;27.07;7.50;;;9.80;99.90;;;;;;5025061;28;20707;-78
2021/03/13 11:23:56;;;;;;;27.83;6.43;;;9.80;99.90;;;;;;5038177;28;20210;-78
2021/03/13 11:26:24;;;;;;;25.00;6.60;;;10.00;99.90;;;;;;5043083;28;20205;-77
2021/03/13 11:28:51;;;;;;;30.80;6.40;;;9.90;99.90;;;;;;5042516;28;20226;-79
2021/03/13 11:31:18;;;;;;;31.97;7.50;;;9.70;99.90;;;;;;5024913;28;20238;-78
2021/03/13 11:33:46;;;;;;;27.83;7.60;;;9.60;99.90;;;;;;5024217;28;20238;-77
2021/03/13 11:36:15;;;;;;;30.53;6.70;;;9.70;99.90;;;;;;5023030;28;20944;-79
2021/03/13 11:38:42;;;;;;;28.87;7.10;;;9.80;99.90;;;;;;5022252;28;20282;-79
2021/03/13 11:41:09;;;;;;;20.57;5.50;;;9.80;99.90;;;;;;5023043;28;20203;-78
2021/03/13 11:43:38;;;;;;;26.47;5.90;;;9.80;99.90;;;;;;5022443;28;20207;-79
2021/03/13 11:46:05;;;;;;;25.57;7.07;;;9.80;99.90;;;;;;5022674;28;20302;-77
2021/03/13 11:48:32;;;;;;;24.63;6.30;;;9.80;99.90;;;;;;5022145;28;20254;-78
2021/03/13 11:50:59;;;;;;;20.63;6.00;;;9.70;99.90;;;;;;5023559;28;20203;-78
2021/03/13 11:53:26;;;;;;;20.47;4.63;;;9.60;99.90;;;;;;5023937;28;20206;-78
2021/03/13 11:55:53;;;;;;;19.77;4.33;;;9.50;99.90;;;;;;5023314;28;20228;-79
2021/03/13 11:58:19;;;;;;;14.63;4.20;;;9.30;99.90;;;;;;5023242;28;20202;-79
2021/03/13 12:00:46;;;;;;;15.83;4.10;;;9.20;99.90;;;;;;5023310;28;20198;-81
2021/03/13 12:03:12;;;;;;;26.03;5.93;;;9.20;99.90;;;;;;5023388;28;20950;-78
2021/03/13 12:05:39;;;;;;;33.70;7.77;;;9.20;99.90;;;;;;5021996;28;20233;-77
2021/03/13 12:08:06;;;;;;;25.57;6.93;;;9.40;99.90;;;;;;5023712;28;20261;-78
2021/03/13 12:10:34;;;;;;;24.77;5.50;;;9.40;99.90;;;;;;5034643;28;20202;-79
2021/03/13 12:13:00;;;;;;;23.70;5.83;;;9.60;99.90;;;;;;5043226;28;20606;-81
2021/03/13 12:15:27;;;;;;;27.37;7.50;;;9.70;99.90;;;;;;5042845;28;20202;-80
2021/03/13 12:17:53;;;;;;;25.50;6.67;;;9.70;99.90;;;;;;5036137;28;20203;-80
2021/03/13 12:20:20;;;;;;;20.97;5.53;;;9.80;99.90;;;;;;5022997;28;20207;-82
2021/03/13 12:22:47;;;;;;;21.57;5.83;;;9.90;99.90;;;;;;5023895;28;20242;-81
2021/03/13 12:25:14;;;;;;;26.00;5.80;;;9.90;99.90;;;;;;5022742;28;20256;-79
2021/03/13 12:27:41;;;;;;;19.90;5.27;;;9.90;99.90;;;;;;5022929;28;20218;-80
2021/03/13 12:30:10;;;;;;;21.37;4.93;;;9.80;99.90;;;;;;5038703;28;20818;-79
2021/03/13 12:32:36;;;;;;;22.57;5.77;;;9.80;99.90;;;;;;5042050;28;20198;-82
2021/03/13 12:35:04;;;;;;;28.23;6.87;;;9.70;99.90;;;;;;5044228;28;20237;-78
2021/03/13 12:37:31;;;;;;;30.10;6.50;;;9.70;99.90;;;;;;5040120;28;20255;-79
2021/03/13 12:39:57;;;;;;;24.37;5.80;;;9.70;99.90;;;;;;5022923;28;20198;-78
2021/03/13 12:42:24;;;;;;;28.47;6.97;;;9.60;99.90;;;;;;5023396;28;20684;-77
2021/03/13 12:44:52;;;;;;;23.87;6.00;;;9.60;99.90;;;;;;5022488;28;20199;-80
2021/03/13 12:47:19;;;;;;;28.90;6.00;;;9.60;99.90;;;;;;5022483;28;20293;-80
2021/03/13 12:49:46;;;;;;;31.10;7.20;;;9.60;99.90;;;;;;5021679;28;20912;-78
2021/03/13 12:52:12;;;;;;;20.80;4.93;;;9.60;99.90;;;;;;5037348;28;20264;-79
2021/03/13 12:54:39;;;;;;;18.07;4.43;;;9.60;99.90;;;;;;5042269;28;20222;-79
2021/03/13 12:57:06;;;;;;;19.60;5.90;;;9.50;99.90;;;;;;5041583;28;20903;-79